Terminal Aerodrome Forecast
Issued by NWS

Home | Current Version | Previous Version | Text Only | Print | Product List | Glossary On
Versions: 1 2 3 4 5 6 7 8 9 10 11 12 13 14 15 16 17 18
000
FTUS43 KGRR 171147
TAFJXN
TAF
KJXN 171147Z 1712/1812 16009KT P6SM VCSH SCT025 BKN090
     FM171800 21013G22KT P6SM VCTS BKN040CB
     FM172100 23013G22KT P6SM BKN060
     FM180100 23010KT P6SM BKN060
     FM180900 24010KT P6SM OVC025=

USA.gov is the U.S. government's official web portal to all federal, state and local government web resources and services.